Yasuj, Iran
Current Conditions -  °F | °C
As of 6:00 AM on Saturday 25 Oct 2014 (Local Time) from OISY Reporting Station
Clear Clear  
Wind Chill:   Ceiling: Unl
Heat Index:   Visibility: 6mi
Dew Point: -1°   Wind: 5mph
Humidity: 61%   Direction: 100°E
Pressure: 30.24"   Gusts: NA
Location:  30.67°N, 51.58°E
Report Text: OISY 250300Z 10004KT CAVOK 06/M01 Q1024
Loading
Personal Weather Stations






























Interactive Weather Map
Tropical Storm Tracking
New forecast layout! Learn more

10-Day Weather Forecast

Advertisements
Track Severe Weather on mobile